sensor_id;sensor_type;location;lat;lon;timestamp;P1;durP1;ratioP1;P2;durP2;ratioP2
68214;SDS011;55036;52.138;5.236;2024-01-30T00:01:57;14.95;;;10.40;;
68214;SDS011;55036;52.138;5.236;2024-01-30T00:04:24;14.30;;;10.27;;
68214;SDS011;55036;52.138;5.236;2024-01-30T00:06:51;14.70;;;10.13;;
68214;SDS011;55036;52.138;5.236;2024-01-30T00:09:19;16.77;;;10.20;;
68214;SDS011;55036;52.138;5.236;2024-01-30T00:11:46;15.68;;;10.05;;
68214;SDS011;55036;52.138;5.236;2024-01-30T00:14:12;16.13;;;9.95;;
68214;SDS011;55036;52.138;5.236;2024-01-30T00:16:40;14.20;;;10.20;;
68214;SDS011;55036;52.138;5.236;2024-01-30T00:19:06;13.43;;;9.82;;
68214;SDS011;55036;52.138;5.236;2024-01-30T00:21:34;15.55;;;9.68;;
68214;SDS011;55036;52.138;5.236;2024-01-30T00:24:01;13.80;;;9.88;;
68214;SDS011;55036;52.138;5.236;2024-01-30T00:26:28;16.20;;;9.75;;
68214;SDS011;55036;52.138;5.236;2024-01-30T00:28:55;16.08;;;10.70;;
68214;SDS011;55036;52.138;5.236;2024-01-30T00:31:22;21.95;;;10.30;;
68214;SDS011;55036;52.138;5.236;2024-01-30T00:33:48;16.70;;;10.60;;
68214;SDS011;55036;52.138;5.236;2024-01-30T00:36:15;13.82;;;9.60;;
68214;SDS011;55036;52.138;5.236;2024-01-30T00:38:42;13.38;;;8.80;;
68214;SDS011;55036;52.138;5.236;2024-01-30T00:41:09;12.90;;;9.25;;
68214;SDS011;55036;52.138;5.236;2024-01-30T00:43:36;13.23;;;9.20;;
68214;SDS011;55036;52.138;5.236;2024-01-30T00:46:03;14.50;;;10.00;;
68214;SDS011;55036;52.138;5.236;2024-01-30T00:48:30;13.88;;;10.10;;
68214;SDS011;55036;52.138;5.236;2024-01-30T00:50:56;15.25;;;9.85;;
68214;SDS011;55036;52.138;5.236;2024-01-30T00:53:23;14.15;;;9.02;;
68214;SDS011;55036;52.138;5.236;2024-01-30T00:55:50;18.30;;;10.23;;
68214;SDS011;55036;52.138;5.236;2024-01-30T00:58:17;14.15;;;8.82;;
68214;SDS011;55036;52.138;5.236;2024-01-30T01:00:45;12.40;;;9.75;;
68214;SDS011;55036;52.138;5.236;2024-01-30T01:03:12;16.55;;;9.52;;
68214;SDS011;55036;52.138;5.236;2024-01-30T01:05:40;14.30;;;9.30;;
68214;SDS011;55036;52.138;5.236;2024-01-30T01:08:07;15.20;;;9.93;;
68214;SDS011;55036;52.138;5.236;2024-01-30T01:10:35;15.95;;;9.48;;
68214;SDS011;55036;52.138;5.236;2024-01-30T01:13:01;15.90;;;9.32;;
68214;SDS011;55036;52.138;5.236;2024-01-30T01:15:28;12.63;;;9.00;;
68214;SDS011;55036;52.138;5.236;2024-01-30T01:17:56;16.27;;;10.23;;
68214;SDS011;55036;52.138;5.236;2024-01-30T01:20:22;14.85;;;9.55;;
68214;SDS011;55036;52.138;5.236;2024-01-30T01:22:49;13.70;;;9.45;;
68214;SDS011;55036;52.138;5.236;2024-01-30T01:25:16;13.90;;;9.82;;
68214;SDS011;55036;52.138;5.236;2024-01-30T01:27:43;16.20;;;9.80;;
68214;SDS011;55036;52.138;5.236;2024-01-30T01:30:17;16.25;;;10.25;;
68214;SDS011;55036;52.138;5.236;2024-01-30T01:32:50;16.23;;;9.38;;
68214;SDS011;55036;52.138;5.236;2024-01-30T01:35:24;17.70;;;10.15;;
68214;SDS011;55036;52.138;5.236;2024-01-30T01:37:52;14.20;;;9.90;;
68214;SDS011;55036;52.138;5.236;2024-01-30T01:40:24;14.02;;;8.80;;
68214;SDS011;55036;52.138;5.236;2024-01-30T01:42:53;14.75;;;9.85;;
68214;SDS011;55036;52.138;5.236;2024-01-30T01:45:20;14.77;;;9.55;;
68214;SDS011;55036;52.138;5.236;2024-01-30T01:47:50;16.35;;;9.77;;
68214;SDS011;55036;52.138;5.236;2024-01-30T01:50:18;14.25;;;10.13;;
68214;SDS011;55036;52.138;5.236;2024-01-30T01:52:50;12.25;;;8.93;;
68214;SDS011;55036;52.138;5.236;2024-01-30T01:55:18;14.27;;;9.65;;
68214;SDS011;55036;52.138;5.236;2024-01-30T01:57:52;13.45;;;9.73;;
68214;SDS011;55036;52.138;5.236;2024-01-30T02:00:20;13.55;;;9.68;;
68214;SDS011;55036;52.138;5.236;2024-01-30T02:02:47;13.32;;;9.82;;
68214;SDS011;55036;52.138;5.236;2024-01-30T02:05:14;16.95;;;10.00;;
68214;SDS011;55036;52.138;5.236;2024-01-30T02:07:42;14.85;;;9.93;;
68214;SDS011;55036;52.138;5.236;2024-01-30T02:10:10;14.15;;;9.40;;
68214;SDS011;55036;52.138;5.236;2024-01-30T02:12:37;16.08;;;10.15;;
68214;SDS011;55036;52.138;5.236;2024-01-30T02:15:04;17.10;;;9.65;;
68214;SDS011;55036;52.138;5.236;2024-01-30T02:17:32;13.27;;;9.18;;
68214;SDS011;55036;52.138;5.236;2024-01-30T02:19:59;14.80;;;9.40;;
68214;SDS011;55036;52.138;5.236;2024-01-30T02:22:26;14.85;;;9.27;;
68214;SDS011;55036;52.138;5.236;2024-01-30T02:24:53;11.95;;;9.27;;
68214;SDS011;55036;52.138;5.236;2024-01-30T02:27:20;15.02;;;8.88;;
68214;SDS011;55036;52.138;5.236;2024-01-30T02:29:47;14.98;;;9.43;;
68214;SDS011;55036;52.138;5.236;2024-01-30T02:32:13;15.35;;;9.07;;
68214;SDS011;55036;52.138;5.236;2024-01-30T02:34:40;14.43;;;9.68;;
68214;SDS011;55036;52.138;5.236;2024-01-30T02:37:07;16.23;;;9.38;;
68214;SDS011;55036;52.138;5.236;2024-01-30T02:39:34;13.50;;;9.32;;
68214;SDS011;55036;52.138;5.236;2024-01-30T02:42:00;17.27;;;10.10;;
68214;SDS011;55036;52.138;5.236;2024-01-30T02:44:27;16.35;;;9.05;;
68214;SDS011;55036;52.138;5.236;2024-01-30T02:46:55;14.50;;;9.60;;
68214;SDS011;55036;52.138;5.236;2024-01-30T02:49:21;12.57;;;8.73;;
68214;SDS011;55036;52.138;5.236;2024-01-30T02:51:48;18.77;;;8.23;;
68214;SDS011;55036;52.138;5.236;2024-01-30T02:54:15;16.42;;;9.75;;
68214;SDS011;55036;52.138;5.236;2024-01-30T02:56:42;15.35;;;9.90;;
68214;SDS011;55036;52.138;5.236;2024-01-30T02:59:09;13.52;;;9.07;;
68214;SDS011;55036;52.138;5.236;2024-01-30T03:01:42;13.35;;;9.18;;
68214;SDS011;55036;52.138;5.236;2024-01-30T03:04:10;12.57;;;8.52;;
68214;SDS011;55036;52.138;5.236;2024-01-30T03:06:38;11.55;;;9.00;;
68214;SDS011;55036;52.138;5.236;2024-01-30T03:09:04;12.38;;;8.40;;
68214;SDS011;55036;52.138;5.236;2024-01-30T03:11:31;16.17;;;8.68;;
68214;SDS011;55036;52.138;5.236;2024-01-30T03:13:58;12.80;;;9.65;;
68214;SDS011;55036;52.138;5.236;2024-01-30T03:16:25;15.15;;;9.52;;
68214;SDS011;55036;52.138;5.236;2024-01-30T03:18:51;18.00;;;9.40;;
68214;SDS011;55036;52.138;5.236;2024-01-30T03:21:19;14.23;;;8.98;;
68214;SDS011;55036;52.138;5.236;2024-01-30T03:23:45;12.00;;;8.82;;
68214;SDS011;55036;52.138;5.236;2024-01-30T03:26:12;13.70;;;9.30;;
68214;SDS011;55036;52.138;5.236;2024-01-30T03:28:40;12.35;;;9.32;;
68214;SDS011;55036;52.138;5.236;2024-01-30T03:31:07;15.48;;;10.02;;
68214;SDS011;55036;52.138;5.236;2024-01-30T03:33:34;15.50;;;9.85;;
68214;SDS011;55036;52.138;5.236;2024-01-30T03:36:02;15.10;;;10.00;;
68214;SDS011;55036;52.138;5.236;2024-01-30T03:38:30;15.13;;;10.05;;
68214;SDS011;55036;52.138;5.236;2024-01-30T03:40:59;15.25;;;9.95;;
68214;SDS011;55036;52.138;5.236;2024-01-30T03:43:26;16.20;;;10.02;;
68214;SDS011;55036;52.138;5.236;2024-01-30T03:45:53;16.42;;;10.65;;
68214;SDS011;55036;52.138;5.236;2024-01-30T03:48:20;17.08;;;11.05;;
68214;SDS011;55036;52.138;5.236;2024-01-30T03:50:47;16.90;;;10.50;;
68214;SDS011;55036;52.138;5.236;2024-01-30T03:53:14;16.60;;;11.45;;
68214;SDS011;55036;52.138;5.236;2024-01-30T03:55:41;16.67;;;10.77;;
68214;SDS011;55036;52.138;5.236;2024-01-30T03:58:07;17.55;;;10.98;;
68214;SDS011;55036;52.138;5.236;2024-01-30T04:00:34;16.10;;;10.85;;
68214;SDS011;55036;52.138;5.236;2024-01-30T04:03:01;19.20;;;11.23;;
68214;SDS011;55036;52.138;5.236;2024-01-30T04:05:28;17.38;;;10.85;;
68214;SDS011;55036;52.138;5.236;2024-01-30T04:07:55;18.38;;;11.40;;
68214;SDS011;55036;52.138;5.236;2024-01-30T04:10:22;16.00;;;11.07;;
68214;SDS011;55036;52.138;5.236;2024-01-30T04:12:49;16.17;;;10.57;;
68214;SDS011;55036;52.138;5.236;2024-01-30T04:15:16;17.30;;;11.55;;
68214;SDS011;55036;52.138;5.236;2024-01-30T04:17:43;16.98;;;11.20;;
68214;SDS011;55036;52.138;5.236;2024-01-30T04:20:13;15.43;;;10.57;;
68214;SDS011;55036;52.138;5.236;2024-01-30T04:22:45;13.48;;;10.43;;
68214;SDS011;55036;52.138;5.236;2024-01-30T04:25:12;15.05;;;10.65;;
68214;SDS011;55036;52.138;5.236;2024-01-30T04:27:40;15.65;;;11.02;;
68214;SDS011;55036;52.138;5.236;2024-01-30T04:30:07;15.13;;;10.57;;
68214;SDS011;55036;52.138;5.236;2024-01-30T04:32:34;17.05;;;10.88;;
68214;SDS011;55036;52.138;5.236;2024-01-30T04:35:02;18.10;;;10.30;;
68214;SDS011;55036;52.138;5.236;2024-01-30T04:37:34;15.02;;;10.60;;
68214;SDS011;55036;52.138;5.236;2024-01-30T04:40:00;17.83;;;9.20;;
68214;SDS011;55036;52.138;5.236;2024-01-30T04:42:27;15.25;;;9.95;;
68214;SDS011;55036;52.138;5.236;2024-01-30T04:44:54;15.70;;;9.80;;
68214;SDS011;55036;52.138;5.236;2024-01-30T04:47:21;15.13;;;9.50;;
68214;SDS011;55036;52.138;5.236;2024-01-30T04:49:47;16.35;;;9.93;;
68214;SDS011;55036;52.138;5.236;2024-01-30T04:52:14;16.65;;;9.80;;
68214;SDS011;55036;52.138;5.236;2024-01-30T04:54:41;16.27;;;9.68;;
68214;SDS011;55036;52.138;5.236;2024-01-30T04:57:08;17.60;;;9.90;;
68214;SDS011;55036;52.138;5.236;2024-01-30T04:59:38;13.75;;;8.32;;
68214;SDS011;55036;52.138;5.236;2024-01-30T05:02:05;17.48;;;9.05;;
68214;SDS011;55036;52.138;5.236;2024-01-30T05:04:32;14.38;;;9.23;;
68214;SDS011;55036;52.138;5.236;2024-01-30T05:06:59;12.80;;;8.80;;
68214;SDS011;55036;52.138;5.236;2024-01-30T05:09:26;16.75;;;9.50;;
68214;SDS011;55036;52.138;5.236;2024-01-30T05:11:52;15.85;;;9.77;;
68214;SDS011;55036;52.138;5.236;2024-01-30T05:14:19;13.88;;;8.75;;
68214;SDS011;55036;52.138;5.236;2024-01-30T05:16:46;17.08;;;8.43;;
68214;SDS011;55036;52.138;5.236;2024-01-30T05:19:13;16.13;;;9.25;;
68214;SDS011;55036;52.138;5.236;2024-01-30T05:21:41;14.20;;;9.52;;
68214;SDS011;55036;52.138;5.236;2024-01-30T05:24:07;14.43;;;9.38;;
68214;SDS011;55036;52.138;5.236;2024-01-30T05:26:36;11.93;;;9.07;;
68214;SDS011;55036;52.138;5.236;2024-01-30T05:29:03;15.27;;;8.80;;
68214;SDS011;55036;52.138;5.236;2024-01-30T05:31:30;13.85;;;8.55;;
68214;SDS011;55036;52.138;5.236;2024-01-30T05:33:56;13.93;;;8.68;;
68214;SDS011;55036;52.138;5.236;2024-01-30T05:36:24;14.05;;;8.65;;
68214;SDS011;55036;52.138;5.236;2024-01-30T05:38:50;14.07;;;8.50;;
68214;SDS011;55036;52.138;5.236;2024-01-30T05:41:17;17.13;;;8.20;;
68214;SDS011;55036;52.138;5.236;2024-01-30T05:43:44;13.13;;;8.15;;
68214;SDS011;55036;52.138;5.236;2024-01-30T05:46:11;13.70;;;8.95;;
68214;SDS011;55036;52.138;5.236;2024-01-30T05:48:37;11.73;;;8.18;;
68214;SDS011;55036;52.138;5.236;2024-01-30T05:51:04;10.88;;;7.60;;
68214;SDS011;55036;52.138;5.236;2024-01-30T05:53:33;10.15;;;7.60;;
68214;SDS011;55036;52.138;5.236;2024-01-30T05:56:03;12.15;;;7.97;;
68214;SDS011;55036;52.138;5.236;2024-01-30T05:58:30;12.73;;;8.32;;
68214;SDS011;55036;52.138;5.236;2024-01-30T06:01:00;10.43;;;7.78;;
68214;SDS011;55036;52.138;5.236;2024-01-30T06:03:26;10.20;;;7.05;;
68214;SDS011;55036;52.138;5.236;2024-01-30T06:05:53;15.63;;;8.30;;
68214;SDS011;55036;52.138;5.236;2024-01-30T06:08:20;12.48;;;8.10;;
68214;SDS011;55036;52.138;5.236;2024-01-30T06:10:47;13.63;;;8.27;;
68214;SDS011;55036;52.138;5.236;2024-01-30T06:13:14;9.80;;;6.70;;
68214;SDS011;55036;52.138;5.236;2024-01-30T06:15:41;11.40;;;8.18;;
68214;SDS011;55036;52.138;5.236;2024-01-30T06:18:07;11.65;;;7.38;;
68214;SDS011;55036;52.138;5.236;2024-01-30T06:20:34;13.80;;;8.23;;
68214;SDS011;55036;52.138;5.236;2024-01-30T06:23:02;12.52;;;8.13;;
68214;SDS011;55036;52.138;5.236;2024-01-30T06:25:28;17.25;;;7.97;;
68214;SDS011;55036;52.138;5.236;2024-01-30T06:27:55;12.27;;;8.07;;
68214;SDS011;55036;52.138;5.236;2024-01-30T06:30:22;10.95;;;7.65;;
68214;SDS011;55036;52.138;5.236;2024-01-30T06:32:49;11.93;;;7.85;;
68214;SDS011;55036;52.138;5.236;2024-01-30T06:35:15;12.75;;;8.10;;
68214;SDS011;55036;52.138;5.236;2024-01-30T06:37:43;11.73;;;7.57;;
68214;SDS011;55036;52.138;5.236;2024-01-30T06:40:10;13.60;;;7.85;;
68214;SDS011;55036;52.138;5.236;2024-01-30T06:42:37;11.77;;;8.02;;
68214;SDS011;55036;52.138;5.236;2024-01-30T06:45:04;11.77;;;7.53;;
68214;SDS011;55036;52.138;5.236;2024-01-30T06:47:33;11.02;;;7.95;;
68214;SDS011;55036;52.138;5.236;2024-01-30T06:49:59;10.88;;;7.57;;
68214;SDS011;55036;52.138;5.236;2024-01-30T06:52:28;14.23;;;7.47;;
68214;SDS011;55036;52.138;5.236;2024-01-30T06:54:55;13.88;;;7.55;;
68214;SDS011;55036;52.138;5.236;2024-01-30T06:57:21;13.00;;;7.57;;
68214;SDS011;55036;52.138;5.236;2024-01-30T06:59:48;10.52;;;7.20;;
68214;SDS011;55036;52.138;5.236;2024-01-30T07:02:15;10.98;;;6.90;;
68214;SDS011;55036;52.138;5.236;2024-01-30T07:04:42;10.32;;;6.90;;
68214;SDS011;55036;52.138;5.236;2024-01-30T07:07:12;13.05;;;7.72;;
68214;SDS011;55036;52.138;5.236;2024-01-30T07:09:41;10.18;;;7.18;;
68214;SDS011;55036;52.138;5.236;2024-01-30T07:12:08;16.45;;;7.68;;
68214;SDS011;55036;52.138;5.236;2024-01-30T07:14:35;14.55;;;7.70;;
68214;SDS011;55036;52.138;5.236;2024-01-30T07:17:02;13.65;;;8.30;;
68214;SDS011;55036;52.138;5.236;2024-01-30T07:19:28;14.13;;;7.57;;
68214;SDS011;55036;52.138;5.236;2024-01-30T07:21:55;11.00;;;7.18;;
68214;SDS011;55036;52.138;5.236;2024-01-30T07:24:22;14.43;;;7.35;;
68214;SDS011;55036;52.138;5.236;2024-01-30T07:26:49;13.63;;;7.63;;
68214;SDS011;55036;52.138;5.236;2024-01-30T07:29:16;13.80;;;7.25;;
68214;SDS011;55036;52.138;5.236;2024-01-30T07:31:42;12.10;;;7.47;;
68214;SDS011;55036;52.138;5.236;2024-01-30T07:34:09;11.55;;;7.13;;
68214;SDS011;55036;52.138;5.236;2024-01-30T07:36:36;11.43;;;7.80;;
68214;SDS011;55036;52.138;5.236;2024-01-30T07:39:05;12.45;;;7.25;;
68214;SDS011;55036;52.138;5.236;2024-01-30T07:41:32;10.50;;;6.80;;
68214;SDS011;55036;52.138;5.236;2024-01-30T07:43:59;14.85;;;6.78;;
68214;SDS011;55036;52.138;5.236;2024-01-30T07:46:25;11.95;;;7.40;;
68214;SDS011;55036;52.138;5.236;2024-01-30T07:48:52;13.05;;;7.30;;
68214;SDS011;55036;52.138;5.236;2024-01-30T07:51:20;12.35;;;7.93;;
68214;SDS011;55036;52.138;5.236;2024-01-30T07:53:54;13.57;;;7.65;;
68214;SDS011;55036;52.138;5.236;2024-01-30T07:56:21;12.98;;;7.45;;
68214;SDS011;55036;52.138;5.236;2024-01-30T07:58:48;13.15;;;6.60;;
68214;SDS011;55036;52.138;5.236;2024-01-30T08:01:15;13.48;;;7.28;;
68214;SDS011;55036;52.138;5.236;2024-01-30T08:03:42;11.23;;;7.80;;
68214;SDS011;55036;52.138;5.236;2024-01-30T08:06:09;10.45;;;7.53;;
68214;SDS011;55036;52.138;5.236;2024-01-30T08:08:36;10.40;;;7.07;;
68214;SDS011;55036;52.138;5.236;2024-01-30T08:11:04;14.85;;;8.63;;
68214;SDS011;55036;52.138;5.236;2024-01-30T08:13:30;17.90;;;7.38;;
68214;SDS011;55036;52.138;5.236;2024-01-30T08:15:57;14.35;;;7.80;;
68214;SDS011;55036;52.138;5.236;2024-01-30T08:18:24;17.17;;;7.40;;
68214;SDS011;55036;52.138;5.236;2024-01-30T08:20:51;14.10;;;7.68;;
68214;SDS011;55036;52.138;5.236;2024-01-30T08:23:18;18.58;;;8.32;;
68214;SDS011;55036;52.138;5.236;2024-01-30T08:25:44;10.65;;;7.32;;
68214;SDS011;55036;52.138;5.236;2024-01-30T08:28:11;15.70;;;6.90;;
68214;SDS011;55036;52.138;5.236;2024-01-30T08:30:38;14.85;;;7.82;;
68214;SDS011;55036;52.138;5.236;2024-01-30T08:33:06;12.45;;;7.45;;
68214;SDS011;55036;52.138;5.236;2024-01-30T08:35:32;14.05;;;6.85;;
68214;SDS011;55036;52.138;5.236;2024-01-30T08:38:00;15.00;;;8.02;;
68214;SDS011;55036;52.138;5.236;2024-01-30T08:40:27;14.77;;;7.70;;
68214;SDS011;55036;52.138;5.236;2024-01-30T08:42:55;11.40;;;6.38;;
68214;SDS011;55036;52.138;5.236;2024-01-30T08:45:22;13.52;;;7.28;;
68214;SDS011;55036;52.138;5.236;2024-01-30T08:47:49;12.18;;;7.18;;
68214;SDS011;55036;52.138;5.236;2024-01-30T08:50:16;15.20;;;7.65;;
68214;SDS011;55036;52.138;5.236;2024-01-30T08:52:43;16.33;;;7.28;;
68214;SDS011;55036;52.138;5.236;2024-01-30T08:55:12;14.98;;;7.43;;
68214;SDS011;55036;52.138;5.236;2024-01-30T08:57:39;13.60;;;8.20;;
68214;SDS011;55036;52.138;5.236;2024-01-30T09:00:06;12.52;;;7.10;;
68214;SDS011;55036;52.138;5.236;2024-01-30T09:02:35;12.13;;;7.00;;
68214;SDS011;55036;52.138;5.236;2024-01-30T09:05:02;14.75;;;7.30;;
68214;SDS011;55036;52.138;5.236;2024-01-30T09:07:29;12.43;;;6.88;;
68214;SDS011;55036;52.138;5.236;2024-01-30T09:09:56;15.60;;;7.18;;
68214;SDS011;55036;52.138;5.236;2024-01-30T09:12:23;15.52;;;6.57;;
68214;SDS011;55036;52.138;5.236;2024-01-30T09:14:50;17.30;;;7.47;;
68214;SDS011;55036;52.138;5.236;2024-01-30T09:17:17;16.52;;;7.10;;
68214;SDS011;55036;52.138;5.236;2024-01-30T09:19:45;13.55;;;7.47;;
68214;SDS011;55036;52.138;5.236;2024-01-30T09:22:12;13.90;;;7.35;;
68214;SDS011;55036;52.138;5.236;2024-01-30T09:24:39;17.30;;;7.63;;
68214;SDS011;55036;52.138;5.236;2024-01-30T09:27:07;12.63;;;7.30;;
68214;SDS011;55036;52.138;5.236;2024-01-30T09:29:34;17.35;;;7.38;;
68214;SDS011;55036;52.138;5.236;2024-01-30T09:32:03;21.95;;;7.93;;
68214;SDS011;55036;52.138;5.236;2024-01-30T09:34:31;15.82;;;7.70;;
68214;SDS011;55036;52.138;5.236;2024-01-30T09:36:59;13.00;;;7.63;;
68214;SDS011;55036;52.138;5.236;2024-01-30T09:39:28;11.20;;;7.32;;
68214;SDS011;55036;52.138;5.236;2024-01-30T09:42:05;15.57;;;8.55;;
68214;SDS011;55036;52.138;5.236;2024-01-30T09:44:44;13.73;;;7.20;;
68214;SDS011;55036;52.138;5.236;2024-01-30T09:47:13;22.90;;;8.05;;
68214;SDS011;55036;52.138;5.236;2024-01-30T09:49:42;20.85;;;8.68;;
68214;SDS011;55036;52.138;5.236;2024-01-30T09:52:10;17.80;;;7.53;;
68214;SDS011;55036;52.138;5.236;2024-01-30T09:54:38;14.00;;;7.65;;
68214;SDS011;55036;52.138;5.236;2024-01-30T09:57:05;15.45;;;7.95;;
68214;SDS011;55036;52.138;5.236;2024-01-30T09:59:33;18.02;;;8.23;;
68214;SDS011;55036;52.138;5.236;2024-01-30T10:02:00;14.88;;;7.57;;
68214;SDS011;55036;52.138;5.236;2024-01-30T10:04:27;14.93;;;7.07;;
68214;SDS011;55036;52.138;5.236;2024-01-30T10:06:54;12.55;;;7.43;;
68214;SDS011;55036;52.138;5.236;2024-01-30T10:09:21;13.50;;;7.50;;
68214;SDS011;55036;52.138;5.236;2024-01-30T10:11:48;15.13;;;6.63;;
68214;SDS011;55036;52.138;5.236;2024-01-30T10:14:17;21.08;;;7.30;;
68214;SDS011;55036;52.138;5.236;2024-01-30T10:16:45;17.23;;;8.02;;
68214;SDS011;55036;52.138;5.236;2024-01-30T10:19:13;12.40;;;7.40;;
68214;SDS011;55036;52.138;5.236;2024-01-30T10:21:40;14.10;;;7.60;;
68214;SDS011;55036;52.138;5.236;2024-01-30T10:24:06;11.48;;;6.60;;
68214;SDS011;55036;52.138;5.236;2024-01-30T10:26:33;13.35;;;7.60;;
68214;SDS011;55036;52.138;5.236;2024-01-30T10:29:00;11.18;;;6.82;;
68214;SDS011;55036;52.138;5.236;2024-01-30T10:31:27;12.35;;;6.50;;
68214;SDS011;55036;52.138;5.236;2024-01-30T10:33:54;8.88;;;6.20;;
68214;SDS011;55036;52.138;5.236;2024-01-30T10:36:39;11.93;;;6.78;;
68214;SDS011;55036;52.138;5.236;2024-01-30T10:39:09;12.02;;;6.95;;
68214;SDS011;55036;52.138;5.236;2024-01-30T10:41:42;12.35;;;7.28;;
68214;SDS011;55036;52.138;5.236;2024-01-30T10:44:10;18.13;;;7.38;;
68214;SDS011;55036;52.138;5.236;2024-01-30T10:46:38;11.10;;;7.35;;
68214;SDS011;55036;52.138;5.236;2024-01-30T10:49:09;15.23;;;7.63;;
68214;SDS011;55036;52.138;5.236;2024-01-30T10:51:37;10.20;;;6.07;;
68214;SDS011;55036;52.138;5.236;2024-01-30T10:54:05;15.27;;;7.75;;
68214;SDS011;55036;52.138;5.236;2024-01-30T10:56:33;17.10;;;6.90;;
68214;SDS011;55036;52.138;5.236;2024-01-30T10:59:01;13.80;;;6.78;;
68214;SDS011;55036;52.138;5.236;2024-01-30T11:01:28;18.00;;;7.57;;
68214;SDS011;55036;52.138;5.236;2024-01-30T11:03:55;20.50;;;6.78;;
68214;SDS011;55036;52.138;5.236;2024-01-30T11:06:24;15.82;;;6.75;;
68214;SDS011;55036;52.138;5.236;2024-01-30T11:09:04;10.02;;;6.07;;
68214;SDS011;55036;52.138;5.236;2024-01-30T11:11:55;11.40;;;5.70;;
68214;SDS011;55036;52.138;5.236;2024-01-30T11:14:27;11.98;;;5.57;;
68214;SDS011;55036;52.138;5.236;2024-01-30T11:16:59;8.38;;;4.45;;
68214;SDS011;55036;52.138;5.236;2024-01-30T11:19:26;7.70;;;4.45;;
68214;SDS011;55036;52.138;5.236;2024-01-30T11:21:54;11.88;;;5.10;;
68214;SDS011;55036;52.138;5.236;2024-01-30T11:24:24;11.27;;;5.07;;
68214;SDS011;55036;52.138;5.236;2024-01-30T11:26:58;10.77;;;3.25;;
68214;SDS011;55036;52.138;5.236;2024-01-30T11:29:26;8.02;;;2.92;;
68214;SDS011;55036;52.138;5.236;2024-01-30T11:31:54;8.85;;;2.88;;
68214;SDS011;55036;52.138;5.236;2024-01-30T11:34:23;10.73;;;2.78;;
68214;SDS011;55036;52.138;5.236;2024-01-30T11:37:00;6.45;;;2.78;;
68214;SDS011;55036;52.138;5.236;2024-01-30T11:39:31;5.47;;;2.57;;
68214;SDS011;55036;52.138;5.236;2024-01-30T11:41:58;4.15;;;1.77;;
68214;SDS011;55036;52.138;5.236;2024-01-30T11:44:26;12.00;;;2.50;;
68214;SDS011;55036;52.138;5.236;2024-01-30T11:46:53;7.97;;;2.00;;
68214;SDS011;55036;52.138;5.236;2024-01-30T11:49:19;6.35;;;2.50;;
68214;SDS011;55036;52.138;5.236;2024-01-30T11:51:47;6.45;;;2.17;;
68214;SDS011;55036;52.138;5.236;2024-01-30T11:54:17;5.47;;;2.22;;
68214;SDS011;55036;52.138;5.236;2024-01-30T11:56:44;9.35;;;2.67;;
68214;SDS011;55036;52.138;5.236;2024-01-30T11:59:11;6.78;;;3.15;;
68214;SDS011;55036;52.138;5.236;2024-01-30T12:01:38;3.45;;;1.73;;
68214;SDS011;55036;52.138;5.236;2024-01-30T12:04:05;8.77;;;2.40;;
68214;SDS011;55036;52.138;5.236;2024-01-30T12:06:36;8.80;;;3.45;;
68214;SDS011;55036;52.138;5.236;2024-01-30T12:09:04;8.40;;;2.88;;
68214;SDS011;55036;52.138;5.236;2024-01-30T12:11:31;5.15;;;2.58;;
68214;SDS011;55036;52.138;5.236;2024-01-30T12:13:58;4.63;;;1.73;;
68214;SDS011;55036;52.138;5.236;2024-01-30T12:16:25;7.15;;;2.20;;
68214;SDS011;55036;52.138;5.236;2024-01-30T12:18:59;6.82;;;2.05;;
68214;SDS011;55036;52.138;5.236;2024-01-30T12:21:28;6.57;;;1.95;;
68214;SDS011;55036;52.138;5.236;2024-01-30T12:23:56;6.20;;;2.33;;
68214;SDS011;55036;52.138;5.236;2024-01-30T12:26:24;11.75;;;2.45;;
68214;SDS011;55036;52.138;5.236;2024-01-30T12:28:55;6.57;;;1.95;;
68214;SDS011;55036;52.138;5.236;2024-01-30T12:31:25;6.10;;;1.85;;
68214;SDS011;55036;52.138;5.236;2024-01-30T12:33:54;5.30;;;2.00;;
68214;SDS011;55036;52.138;5.236;2024-01-30T12:36:22;6.47;;;2.20;;
68214;SDS011;55036;52.138;5.236;2024-01-30T12:38:49;4.10;;;2.00;;
68214;SDS011;55036;52.138;5.236;2024-01-30T12:41:16;4.07;;;2.00;;
68214;SDS011;55036;52.138;5.236;2024-01-30T12:43:43;3.53;;;1.63;;
68214;SDS011;55036;52.138;5.236;2024-01-30T12:46:10;5.47;;;2.17;;
68214;SDS011;55036;52.138;5.236;2024-01-30T12:48:37;5.63;;;1.77;;
68214;SDS011;55036;52.138;5.236;2024-01-30T12:51:04;4.88;;;2.25;;
68214;SDS011;55036;52.138;5.236;2024-01-30T12:53:31;7.28;;;1.98;;
68214;SDS011;55036;52.138;5.236;2024-01-30T12:55:58;4.85;;;2.42;;
68214;SDS011;55036;52.138;5.236;2024-01-30T12:58:24;7.25;;;2.33;;
68214;SDS011;55036;52.138;5.236;2024-01-30T13:00:52;8.55;;;1.85;;
68214;SDS011;55036;52.138;5.236;2024-01-30T13:03:20;5.97;;;1.80;;
68214;SDS011;55036;52.138;5.236;2024-01-30T13:05:48;3.35;;;1.17;;
68214;SDS011;55036;52.138;5.236;2024-01-30T13:08:15;2.97;;;0.80;;
68214;SDS011;55036;52.138;5.236;2024-01-30T13:10:41;8.25;;;1.60;;
68214;SDS011;55036;52.138;5.236;2024-01-30T13:13:11;3.22;;;0.80;;
68214;SDS011;55036;52.138;5.236;2024-01-30T13:15:45;2.10;;;0.77;;
68214;SDS011;55036;52.138;5.236;2024-01-30T13:18:12;4.75;;;1.10;;
68214;SDS011;55036;52.138;5.236;2024-01-30T13:20:39;4.50;;;1.10;;
68214;SDS011;55036;52.138;5.236;2024-01-30T13:23:06;1.58;;;0.77;;
68214;SDS011;55036;52.138;5.236;2024-01-30T13:25:33;4.97;;;1.55;;
68214;SDS011;55036;52.138;5.236;2024-01-30T13:27:59;3.80;;;0.80;;
68214;SDS011;55036;52.138;5.236;2024-01-30T13:30:27;3.53;;;0.93;;
68214;SDS011;55036;52.138;5.236;2024-01-30T13:32:54;5.00;;;1.30;;
68214;SDS011;55036;52.138;5.236;2024-01-30T13:35:21;3.85;;;1.05;;
68214;SDS011;55036;52.138;5.236;2024-01-30T13:37:47;4.25;;;1.17;;
68214;SDS011;55036;52.138;5.236;2024-01-30T13:40:14;3.75;;;1.38;;
68214;SDS011;55036;52.138;5.236;2024-01-30T13:42:43;4.35;;;1.67;;
68214;SDS011;55036;52.138;5.236;2024-01-30T13:45:09;7.10;;;2.30;;
68214;SDS011;55036;52.138;5.236;2024-01-30T13:47:37;3.15;;;1.40;;
68214;SDS011;55036;52.138;5.236;2024-01-30T13:50:04;3.40;;;1.63;;
68214;SDS011;55036;52.138;5.236;2024-01-30T13:52:32;4.97;;;2.28;;
68214;SDS011;55036;52.138;5.236;2024-01-30T13:55:09;8.45;;;2.90;;
68214;SDS011;55036;52.138;5.236;2024-01-30T13:57:37;2.78;;;1.70;;
68214;SDS011;55036;52.138;5.236;2024-01-30T14:00:04;5.13;;;1.80;;
68214;SDS011;55036;52.138;5.236;2024-01-30T14:02:33;7.18;;;1.63;;
68214;SDS011;55036;52.138;5.236;2024-01-30T14:04:59;3.90;;;1.70;;
68214;SDS011;55036;52.138;5.236;2024-01-30T14:07:26;5.47;;;1.95;;
68214;SDS011;55036;52.138;5.236;2024-01-30T14:09:53;7.00;;;2.08;;
68214;SDS011;55036;52.138;5.236;2024-01-30T14:12:20;8.55;;;3.50;;
68214;SDS011;55036;52.138;5.236;2024-01-30T14:14:47;8.65;;;2.78;;
68214;SDS011;55036;52.138;5.236;2024-01-30T14:17:14;10.93;;;2.10;;
68214;SDS011;55036;52.138;5.236;2024-01-30T14:19:40;3.90;;;1.40;;
68214;SDS011;55036;52.138;5.236;2024-01-30T14:22:07;7.25;;;1.75;;
68214;SDS011;55036;52.138;5.236;2024-01-30T14:24:34;5.00;;;1.77;;
68214;SDS011;55036;52.138;5.236;2024-01-30T14:27:01;5.53;;;1.80;;
68214;SDS011;55036;52.138;5.236;2024-01-30T14:29:28;7.70;;;2.00;;
68214;SDS011;55036;52.138;5.236;2024-01-30T14:31:54;6.05;;;1.80;;
68214;SDS011;55036;52.138;5.236;2024-01-30T14:34:21;4.82;;;2.53;;
68214;SDS011;55036;52.138;5.236;2024-01-30T14:36:48;9.32;;;2.30;;
68214;SDS011;55036;52.138;5.236;2024-01-30T14:39:15;3.75;;;2.38;;